Time;durP1;ratioP1;P1;durP2;ratioP2;P2;SDS_P1;SDS_P2;PMS_P1;PMS_P2;Temp;Humidity;BMP_temperature;BMP_pressure;BME280_temperature;BME280_humidity;BME280_pressure;Samples;Min_cycle;Max_cycle;Signal;HPM_P1;HPM_P2
2023/01/20 00:00:11;;;;;;;;;;;;;;;1.08;76.31;97657.84;7370454;19;20260;-85
2023/01/20 00:02:38;;;;;;;;;;;;;;;1.05;76.42;97663.25;7372200;19;19915;-85
2023/01/20 00:05:05;;;;;;;;;;;;;;;1.02;76.21;97658.28;7376351;19;19927;-85
2023/01/20 00:07:33;;;;;;;;;;;;;;;1.18;75.84;97671.00;7380850;19;19921;-85
2023/01/20 00:10:00;;;;;;;;;;;;;;;1.14;75.46;97673.00;7382178;19;19929;-85
2023/01/20 00:12:28;;;;;;;;;;;;;;;1.13;75.54;97675.72;7378965;19;19922;-85
2023/01/20 00:14:55;;;;;;;;;;;;;;;1.13;75.76;97680.94;7374675;19;19957;-84
2023/01/20 00:17:21;;;;;;;;;;;;;;;1.07;76.02;97687.41;7372302;19;19926;-84
2023/01/20 00:19:48;;;;;;;;;;;;;;;1.17;75.70;97682.38;7377042;19;20000;-84
2023/01/20 00:22:14;;;;;;;;;;;;;;;1.12;75.89;97685.31;7378463;19;19921;-85
2023/01/20 00:24:42;;;;;;;;;;;;;;;1.16;75.90;97686.75;7379989;19;20313;-85
2023/01/20 00:27:08;;;;;;;;;;;;;;;1.17;75.70;97688.41;7373239;19;19923;-85
2023/01/20 00:29:35;;;;;;;;;;;;;;;1.19;75.97;97686.53;7380553;19;19930;-83
2023/01/20 00:32:01;;;;;;;;;;;;;;;1.08;76.44;97689.09;7378840;19;19921;-84
2023/01/20 00:34:28;;;;;;;;;;;;;;;1.07;76.22;97690.84;7373459;19;19922;-85
2023/01/20 00:36:54;;;;;;;;;;;;;;;1.16;76.37;97693.72;7377281;19;19927;-84
2023/01/20 00:39:21;;;;;;;;;;;;;;;1.20;76.04;97696.00;7376876;19;19922;-85
2023/01/20 00:41:48;;;;;;;;;;;;;;;1.17;76.04;97698.81;7378682;19;19926;-85
2023/01/20 00:44:14;;;;;;;;;;;;;;;1.14;76.16;97696.47;7377403;19;19925;-85
2023/01/20 00:46:41;;;;;;;;;;;;;;;1.19;76.10;97702.16;7384569;19;19926;-85
2023/01/20 00:49:08;;;;;;;;;;;;;;;1.05;76.39;97697.13;7378201;19;19922;-85
2023/01/20 00:51:35;;;;;;;;;;;;;;;1.15;76.46;97702.50;7378609;19;20284;-85
2023/01/20 00:54:01;;;;;;;;;;;;;;;1.02;76.50;97700.78;7384673;19;19958;-85
2023/01/20 00:56:28;;;;;;;;;;;;;;;1.18;76.75;97707.47;7377139;19;20022;-85
2023/01/20 00:58:54;;;;;;;;;;;;;;;1.15;76.97;97705.09;7381797;19;20264;-86
2023/01/20 01:01:21;;;;;;;;;;;;;;;1.30;76.76;97720.44;7379328;19;19939;-85
2023/01/20 01:03:48;;;;;;;;;;;;;;;1.35;76.49;97719.28;7384492;19;19923;-85
2023/01/20 01:06:15;;;;;;;;;;;;;;;1.33;76.15;97718.53;7378472;19;20016;-86
2023/01/20 01:08:43;;;;;;;;;;;;;;;1.29;76.19;97718.78;7379836;19;20041;-85
2023/01/20 01:11:10;;;;;;;;;;;;;;;1.33;76.06;97726.34;7383039;19;19918;-85
2023/01/20 01:13:37;;;;;;;;;;;;;;;1.37;76.57;97728.63;7381391;19;19922;-85
2023/01/20 01:16:07;;;;;;;;;;;;;;;1.42;76.47;97733.47;7382433;19;19915;-85
2023/01/20 01:18:33;;;;;;;;;;;;;;;1.44;76.26;97734.22;7380095;19;20341;-85
2023/01/20 01:21:04;;;;;;;;;;;;;;;1.34;76.69;97738.44;7381263;19;19933;-85
2023/01/20 01:23:31;;;;;;;;;;;;;;;1.28;76.77;97730.13;7377044;19;20252;-85
2023/01/20 01:25:58;;;;;;;;;;;;;;;1.40;76.46;97740.59;7385095;19;19962;-85
2023/01/20 01:28:25;;;;;;;;;;;;;;;1.35;76.47;97740.94;7372235;19;19926;-86
2023/01/20 01:30:51;;;;;;;;;;;;;;;1.07;76.79;97750.78;7379730;19;19918;-85
2023/01/20 01:33:21;;;;;;;;;;;;;;;1.19;76.77;97753.44;7380123;19;20302;-85
2023/01/20 01:35:54;;;;;;;;;;;;;;;1.24;76.62;97759.97;7378989;19;19937;-85
2023/01/20 01:38:21;;;;;;;;;;;;;;;1.28;76.45;97756.19;7377697;19;19930;-85
2023/01/20 01:40:48;;;;;;;;;;;;;;;1.37;76.42;97762.50;7385243;19;19974;-85
2023/01/20 01:43:21;;;;;;;;;;;;;;;1.30;76.61;97759.50;7378147;19;19910;-85
2023/01/20 01:45:49;;;;;;;;;;;;;;;1.32;76.41;97759.41;7374613;19;19906;-85
2023/01/20 01:48:30;;;;;;;;;;;;;;;1.23;76.45;97763.50;7374870;19;19919;-85
2023/01/20 01:50:57;;;;;;;;;;;;;;;1.32;76.61;97756.81;7379332;19;19918;-85
2023/01/20 01:53:24;;;;;;;;;;;;;;;1.37;76.50;97759.06;7375332;19;19929;-86
2023/01/20 01:55:52;;;;;;;;;;;;;;;1.39;76.34;97763.22;7377703;19;19926;-85
2023/01/20 01:58:22;;;;;;;;;;;;;;;1.40;76.37;97759.69;7374419;19;19915;-85
2023/01/20 02:00:49;;;;;;;;;;;;;;;1.47;76.26;97765.25;7375467;19;20215;-85
2023/01/20 02:03:16;;;;;;;;;;;;;;;1.47;76.08;97760.03;7374187;19;19935;-86
2023/01/20 02:05:42;;;;;;;;;;;;;;;1.42;76.28;97760.41;7378235;19;20374;-86
2023/01/20 02:08:09;;;;;;;;;;;;;;;1.47;76.00;97765.25;7376646;19;19931;-85
2023/01/20 02:10:35;;;;;;;;;;;;;;;1.42;76.30;97764.75;7374376;19;19915;-85
2023/01/20 02:13:02;;;;;;;;;;;;;;;1.48;76.48;97765.16;7375361;19;19918;-85
2023/01/20 02:15:31;;;;;;;;;;;;;;;1.52;76.46;97765.75;7369383;19;19922;-85
2023/01/20 02:18:16;;;;;;;;;;;;;;;1.46;76.55;97769.63;7374480;19;19926;-85
2023/01/20 02:21:01;;;;;;;;;;;;;;;1.44;76.81;97773.31;7372814;19;20106;-85
2023/01/20 02:23:42;;;;;;;;;;;;;;;1.45;77.17;97770.59;7368511;19;20789;-85
2023/01/20 02:26:12;;;;;;;;;;;;;;;1.49;76.58;97769.41;7371489;19;19923;-85
2023/01/20 02:28:44;;;;;;;;;;;;;;;1.51;76.60;97769.31;7378272;19;19938;-85
2023/01/20 02:31:27;;;;;;;;;;;;;;;1.50;77.02;97775.44;7367535;19;19923;-85
2023/01/20 02:33:55;;;;;;;;;;;;;;;1.53;76.76;97776.06;7373148;19;19928;-86
2023/01/20 02:36:33;;;;;;;;;;;;;;;1.56;76.72;97782.84;7365179;19;19922;-85
2023/01/20 02:39:01;;;;;;;;;;;;;;;1.55;77.00;97778.53;7372707;19;19926;-85
2023/01/20 02:41:35;;;;;;;;;;;;;;;1.44;76.94;97786.34;7373822;19;19919;-85
2023/01/20 02:44:11;;;;;;;;;;;;;;;1.47;76.72;97783.50;7376057;19;20270;-85
2023/01/20 02:46:39;;;;;;;;;;;;;;;1.49;76.95;97781.63;7376084;19;19914;-85
2023/01/20 02:49:17;;;;;;;;;;;;;;;1.51;76.96;97785.78;7369507;19;20293;-85
2023/01/20 02:51:46;;;;;;;;;;;;;;;1.57;76.89;97794.09;7371863;19;19935;-85
2023/01/20 02:54:13;;;;;;;;;;;;;;;1.58;76.87;97791.38;7372559;19;19986;-85
2023/01/20 02:56:39;;;;;;;;;;;;;;;1.53;76.86;97794.31;7374121;19;19974;-85
2023/01/20 02:59:10;;;;;;;;;;;;;;;1.40;76.76;97784.91;7374723;19;19966;-85
2023/01/20 03:01:40;;;;;;;;;;;;;;;1.31;77.00;97796.81;7372642;19;19914;-85
2023/01/20 03:04:08;;;;;;;;;;;;;;;1.10;77.59;97799.22;7378180;19;19926;-85
2023/01/20 03:06:36;;;;;;;;;;;;;;;1.11;77.99;97803.50;7371828;19;19925;-85
2023/01/20 03:09:04;;;;;;;;;;;;;;;0.89;78.28;97804.19;7373690;19;19927;-85
2023/01/20 03:11:31;;;;;;;;;;;;;;;0.69;78.38;97803.00;7377224;19;19923;-85
2023/01/20 03:14:02;;;;;;;;;;;;;;;0.78;78.73;97806.72;7375938;19;20301;-85
2023/01/20 03:16:30;;;;;;;;;;;;;;;1.01;77.99;97807.69;7372997;19;20522;-85
2023/01/20 03:18:58;;;;;;;;;;;;;;;1.07;77.85;97807.25;7374938;19;20271;-86
2023/01/20 03:21:25;;;;;;;;;;;;;;;1.00;78.58;97806.88;7372902;19;19914;-85
2023/01/20 03:23:52;;;;;;;;;;;;;;;0.95;79.04;97808.13;7374529;19;19990;-85
2023/01/20 03:26:19;;;;;;;;;;;;;;;1.15;78.75;97810.13;7371871;19;20406;-85
2023/01/20 03:28:47;;;;;;;;;;;;;;;1.26;78.08;97810.22;7377638;19;20439;-85
2023/01/20 03:31:16;;;;;;;;;;;;;;;1.21;78.22;97812.31;7373609;19;20392;-85
2023/01/20 03:33:43;;;;;;;;;;;;;;;1.28;78.16;97818.72;7376391;19;20362;-85
2023/01/20 03:36:10;;;;;;;;;;;;;;;1.14;77.77;97826.72;7371877;19;19914;-85
2023/01/20 03:38:36;;;;;;;;;;;;;;;1.14;78.08;97823.28;7372312;19;19935;-85
2023/01/20 03:41:29;;;;;;;;;;;;;;;1.06;78.19;97826.44;7373445;19;19919;-85
2023/01/20 03:43:57;;;;;;;;;;;;;;;1.06;78.17;97832.47;7368884;19;19911;-85
2023/01/20 03:46:29;;;;;;;;;;;;;;;1.16;78.14;97832.66;7375719;19;19954;-85
2023/01/20 03:49:17;;;;;;;;;;;;;;;1.20;78.02;97835.88;7376403;19;19935;-85
2023/01/20 03:52:02;;;;;;;;;;;;;;;0.95;78.33;97824.59;7373908;19;19947;-85
2023/01/20 03:54:48;;;;;;;;;;;;;;;0.74;79.03;97832.16;7372584;19;20346;-85
2023/01/20 03:57:16;;;;;;;;;;;;;;;0.53;79.13;97838.88;7369116;19;20353;-85
2023/01/20 03:59:42;;;;;;;;;;;;;;;0.55;79.45;97848.19;7368961;19;20315;-86
2023/01/20 04:02:09;;;;;;;;;;;;;;;0.80;79.00;97849.94;7366849;19;20333;-85
2023/01/20 04:04:37;;;;;;;;;;;;;;;1.00;78.82;97845.09;7376493;19;19919;-85
2023/01/20 04:07:05;;;;;;;;;;;;;;;1.14;78.64;97851.94;7374512;19;20399;-86
2023/01/20 04:09:34;;;;;;;;;;;;;;;1.23;78.61;97846.88;7373022;19;19918;-85
2023/01/20 04:12:01;;;;;;;;;;;;;;;1.33;78.53;97854.88;7371888;19;19934;-85
2023/01/20 04:14:28;;;;;;;;;;;;;;;1.40;78.25;97850.06;7367444;19;19918;-85
2023/01/20 04:16:55;;;;;;;;;;;;;;;1.44;78.34;97862.75;7370801;19;19927;-86
2023/01/20 04:19:22;;;;;;;;;;;;;;;1.45;78.05;97855.75;7366483;19;20336;-86
2023/01/20 04:21:49;;;;;;;;;;;;;;;1.46;78.02;97858.25;7374807;19;19922;-86
2023/01/20 04:24:20;;;;;;;;;;;;;;;1.51;78.04;97863.16;7374352;19;19930;-86
2023/01/20 04:26:47;;;;;;;;;;;;;;;1.54;77.92;97862.91;7379464;19;19914;-86
2023/01/20 04:29:13;;;;;;;;;;;;;;;1.55;77.72;97869.78;7377380;19;19940;-86
2023/01/20 04:31:40;;;;;;;;;;;;;;;1.55;77.71;97867.19;7372533;19;19945;-86
2023/01/20 04:34:08;;;;;;;;;;;;;;;1.54;77.51;97870.75;7374058;19;19947;-86
2023/01/20 04:36:35;;;;;;;;;;;;;;;1.59;77.91;97870.41;7374798;19;19922;-86
2023/01/20 04:39:04;;;;;;;;;;;;;;;1.62;77.76;97876.22;7381175;19;19950;-86
2023/01/20 04:41:31;;;;;;;;;;;;;;;1.65;77.74;97881.22;7374875;19;20522;-86
2023/01/20 04:43:57;;;;;;;;;;;;;;;1.66;77.83;97880.28;7374684;19;19914;-86
2023/01/20 04:46:24;;;;;;;;;;;;;;;1.66;77.72;97871.63;7371891;19;19923;-86
2023/01/20 04:48:51;;;;;;;;;;;;;;;1.63;77.69;97893.53;7379339;19;19918;-86
2023/01/20 04:51:17;;;;;;;;;;;;;;;1.45;77.80;97881.81;7370270;19;19922;-86
2023/01/20 04:53:44;;;;;;;;;;;;;;;1.49;77.89;97893.72;7374161;19;19914;-86
2023/01/20 04:56:12;;;;;;;;;;;;;;;1.33;78.28;97891.38;7375802;19;19918;-86
2023/01/20 04:58:38;;;;;;;;;;;;;;;1.30;78.28;97900.25;7378079;19;19974;-86
2023/01/20 05:01:05;;;;;;;;;;;;;;;1.33;78.23;97898.38;7380000;19;19922;-86
2023/01/20 05:03:32;;;;;;;;;;;;;;;1.39;78.00;97908.34;7384162;19;19989;-86
2023/01/20 05:05:59;;;;;;;;;;;;;;;1.43;77.84;97907.19;7388053;19;19919;-86
2023/01/20 05:08:26;;;;;;;;;;;;;;;1.35;77.89;97906.91;7372834;19;19925;-86
2023/01/20 05:10:52;;;;;;;;;;;;;;;1.35;78.13;97912.94;7381630;19;19928;-86
2023/01/20 05:13:19;;;;;;;;;;;;;;;1.33;78.21;97917.44;7387998;19;19947;-87
2023/01/20 05:15:46;;;;;;;;;;;;;;;1.40;77.97;97918.66;7399085;19;19931;-87
2023/01/20 05:18:13;;;;;;;;;;;;;;;1.43;78.06;97917.63;7400224;19;20247;-87
2023/01/20 05:20:40;;;;;;;;;;;;;;;1.43;78.13;97926.25;7385910;19;20523;-87
2023/01/20 05:23:06;;;;;;;;;;;;;;;1.43;77.99;97933.25;7384732;19;19919;-86
2023/01/20 05:25:33;;;;;;;;;;;;;;;1.35;78.12;97930.38;7377041;19;19914;-86
2023/01/20 05:28:02;;;;;;;;;;;;;;;1.32;78.13;97931.41;7376181;19;19914;-86
2023/01/20 05:30:29;;;;;;;;;;;;;;;1.22;78.19;97936.44;7375324;19;19910;-86
2023/01/20 05:32:56;;;;;;;;;;;;;;;1.13;78.28;97947.50;7380833;19;19914;-86
2023/01/20 05:35:22;;;;;;;;;;;;;;;0.96;78.94;97946.06;7371644;19;19960;-86
2023/01/20 05:37:53;;;;;;;;;;;;;;;0.68;79.41;97944.50;7380237;19;19936;-85
2023/01/20 05:40:20;;;;;;;;;;;;;;;0.74;80.00;97945.84;7374602;19;19930;-85
2023/01/20 05:42:50;;;;;;;;;;;;;;;0.63;80.01;97947.44;7371088;19;19911;-84
2023/01/20 05:45:23;;;;;;;;;;;;;;;0.74;79.94;97958.88;7377313;19;19920;-85
2023/01/20 05:47:53;;;;;;;;;;;;;;;0.87;79.71;97957.13;7379336;19;19935;-84
2023/01/20 05:50:20;;;;;;;;;;;;;;;0.97;79.39;97959.91;7374541;19;19915;-85
2023/01/20 05:52:49;;;;;;;;;;;;;;;0.98;79.04;97964.22;7377073;19;19936;-85
2023/01/20 05:55:15;;;;;;;;;;;;;;;1.04;79.00;97963.78;7376951;19;19919;-85
2023/01/20 05:57:42;;;;;;;;;;;;;;;0.85;78.92;97961.59;7368396;19;20002;-85
2023/01/20 06:00:09;;;;;;;;;;;;;;;0.88;79.09;97954.41;7379796;19;20333;-85
2023/01/20 06:02:56;;;;;;;;;;;;;;;0.87;78.90;97970.97;7381713;19;19923;-84
2023/01/20 06:06:01;;;;;;;;;;;;;;;0.52;79.78;97969.91;7381349;19;20194;-85
2023/01/20 06:08:33;;;;;;;;;;;;;;;0.37;79.95;97967.41;7370762;19;20563;-85
2023/01/20 06:11:00;;;;;;;;;;;;;;;0.39;80.01;97970.72;7380222;19;19911;-85
2023/01/20 06:13:27;;;;;;;;;;;;;;;0.47;79.86;97972.00;7374248;19;20344;-86
2023/01/20 06:15:54;;;;;;;;;;;;;;;0.65;79.77;97971.59;7372998;19;19918;-85
2023/01/20 06:18:21;;;;;;;;;;;;;;;0.64;79.48;97984.72;7369517;19;19924;-85
2023/01/20 06:20:48;;;;;;;;;;;;;;;0.64;79.65;97982.13;7375717;19;19919;-85
2023/01/20 06:23:14;;;;;;;;;;;;;;;0.56;79.52;97981.81;7374204;19;20380;-85
2023/01/20 06:25:41;;;;;;;;;;;;;;;0.28;79.42;97986.22;7372585;19;20757;-85
2023/01/20 06:28:07;;;;;;;;;;;;;;;0.21;79.76;97982.34;7375795;19;19919;-85
2023/01/20 06:30:34;;;;;;;;;;;;;;;0.29;79.69;97993.13;7375073;19;19915;-85
2023/01/20 06:33:01;;;;;;;;;;;;;;;0.43;79.41;97995.63;7376241;19;19922;-85
2023/01/20 06:35:28;;;;;;;;;;;;;;;0.53;79.27;98005.44;7375361;19;20344;-85
2023/01/20 06:38:00;;;;;;;;;;;;;;;0.67;78.77;98007.13;7378676;19;19921;-85
2023/01/20 06:40:27;;;;;;;;;;;;;;;0.50;78.76;98006.47;7376911;19;20017;-85
2023/01/20 06:42:56;;;;;;;;;;;;;;;0.32;79.14;98002.50;7378453;19;20314;-85
2023/01/20 06:45:23;;;;;;;;;;;;;;;-0.03;79.10;98013.38;7377243;19;20352;-85
2023/01/20 06:47:50;;;;;;;;;;;;;;;0.11;79.46;98022.94;7379177;19;20630;-85
2023/01/20 06:50:16;;;;;;;;;;;;;;;0.11;79.51;98017.72;7371826;19;19921;-85
2023/01/20 06:52:47;;;;;;;;;;;;;;;0.23;79.34;98019.50;7371886;19;20299;-85
2023/01/20 06:55:13;;;;;;;;;;;;;;;0.30;79.31;98031.19;7376713;19;20238;-84
2023/01/20 06:57:40;;;;;;;;;;;;;;;0.31;79.18;98035.44;7375689;19;19922;-85
2023/01/20 07:00:07;;;;;;;;;;;;;;;0.52;78.94;98029.78;7376538;19;19982;-85
2023/01/20 07:02:36;;;;;;;;;;;;;;;0.38;78.98;98043.72;7368254;19;21399;-85
2023/01/20 07:05:06;;;;;;;;;;;;;;;0.58;78.75;98050.19;7378091;19;19928;-85
2023/01/20 07:07:34;;;;;;;;;;;;;;;0.52;78.61;98055.81;7375988;19;20892;-85
2023/01/20 07:10:04;;;;;;;;;;;;;;;0.71;78.69;98063.22;7380178;19;19939;-85
2023/01/20 07:12:30;;;;;;;;;;;;;;;0.83;78.28;98060.66;7374467;19;19926;-85
2023/01/20 07:14:57;;;;;;;;;;;;;;;0.77;78.09;98061.06;7376931;19;20375;-85
2023/01/20 07:17:26;;;;;;;;;;;;;;;0.90;77.87;98062.88;7371586;19;19970;-85
2023/01/20 07:19:57;;;;;;;;;;;;;;;0.94;77.98;98066.91;7376421;19;20275;-85
2023/01/20 07:22:23;;;;;;;;;;;;;;;0.98;77.69;98078.81;7371359;19;20215;-85
2023/01/20 07:25:09;;;;;;;;;;;;;;;1.02;77.66;98082.88;7384930;19;19966;-85
2023/01/20 07:27:57;;;;;;;;;;;;;;;1.15;77.84;98090.69;7389468;19;19955;-85
2023/01/20 07:30:35;;;;;;;;;;;;;;;1.23;77.62;98086.63;7379744;19;19931;-86
2023/01/20 07:33:34;;;;;;;;;;;;;;;1.29;77.78;98104.47;7379709;19;21912;-85
2023/01/20 07:36:00;;;;;;;;;;;;;;;1.26;77.40;98107.28;7379571;19;19918;-85
2023/01/20 07:38:27;;;;;;;;;;;;;;;1.24;77.35;98106.53;7370219;19;19935;-85
2023/01/20 07:41:01;;;;;;;;;;;;;;;1.24;77.58;98109.16;7375923;19;19932;-85
2023/01/20 07:43:30;;;;;;;;;;;;;;;1.30;77.49;98113.09;7373781;19;19918;-85
2023/01/20 07:46:00;;;;;;;;;;;;;;;1.36;77.20;98117.91;7371305;19;19914;-85
2023/01/20 07:48:30;;;;;;;;;;;;;;;1.35;77.12;98115.41;7368856;19;20455;-85
2023/01/20 07:51:01;;;;;;;;;;;;;;;1.39;77.07;98114.25;7370479;19;19919;-85
2023/01/20 07:53:28;;;;;;;;;;;;;;;1.36;77.04;98117.91;7372657;19;19978;-83
2023/01/20 07:55:55;;;;;;;;;;;;;;;1.30;77.25;98121.75;7387463;19;19926;-83
2023/01/20 07:58:21;;;;;;;;;;;;;;;1.08;77.62;98121.56;7380302;19;19927;-83
2023/01/20 08:00:51;;;;;;;;;;;;;;;1.25;77.27;98129.06;7381968;19;19926;-83
2023/01/20 08:03:18;;;;;;;;;;;;;;;1.32;77.54;98132.09;7380501;19;19978;-83
2023/01/20 08:05:44;;;;;;;;;;;;;;;1.35;77.09;98131.06;7381594;19;19934;-83
2023/01/20 08:08:11;;;;;;;;;;;;;;;1.27;77.34;98139.38;7380246;19;19918;-83
2023/01/20 08:10:37;;;;;;;;;;;;;;;1.35;77.20;98144.91;7378975;19;19919;-84
2023/01/20 08:13:05;;;;;;;;;;;;;;;1.49;76.90;98136.16;7387292;19;19922;-85
2023/01/20 08:15:31;;;;;;;;;;;;;;;1.51;76.49;98142.94;7380992;19;19914;-86
2023/01/20 08:17:59;;;;;;;;;;;;;;;1.51;76.21;98137.72;7380981;19;19982;-86
2023/01/20 08:20:25;;;;;;;;;;;;;;;1.54;76.61;98157.53;7380781;19;20268;-83
2023/01/20 08:22:59;;;;;;;;;;;;;;;1.65;76.73;98155.00;7380815;19;20385;-83
2023/01/20 08:25:32;;;;;;;;;;;;;;;1.79;76.62;98153.22;7377863;19;19919;-83
2023/01/20 08:27:58;;;;;;;;;;;;;;;1.83;76.11;98158.13;7379846;19;19922;-83
2023/01/20 08:30:25;;;;;;;;;;;;;;;1.75;75.75;98153.44;7379383;19;20010;-83
2023/01/20 08:32:51;;;;;;;;;;;;;;;1.49;75.50;98157.84;7382616;19;19911;-83
2023/01/20 08:35:18;;;;;;;;;;;;;;;1.24;76.17;98157.84;7379696;19;20345;-82
2023/01/20 08:37:45;;;;;;;;;;;;;;;1.17;76.22;98160.00;7379806;19;19933;-83
2023/01/20 08:40:14;;;;;;;;;;;;;;;1.24;76.66;98166.47;7375984;19;19922;-83
2023/01/20 08:42:41;;;;;;;;;;;;;;;1.46;76.29;98172.84;7382899;19;19931;-82
2023/01/20 08:45:10;;;;;;;;;;;;;;;1.45;76.16;98179.00;7384953;19;20401;-83
2023/01/20 08:47:37;;;;;;;;;;;;;;;1.50;76.37;98174.31;7378724;19;20475;-83
2023/01/20 08:50:05;;;;;;;;;;;;;;;1.56;76.18;98179.13;7386157;19;19918;-83
2023/01/20 08:52:32;;;;;;;;;;;;;;;1.77;76.35;98191.66;7400357;19;19918;-82
2023/01/20 08:54:59;;;;;;;;;;;;;;;1.69;76.13;98193.00;7404181;19;19922;-83
2023/01/20 08:57:26;;;;;;;;;;;;;;;1.78;75.93;98191.53;7395737;19;22420;-82
2023/01/20 08:59:55;;;;;;;;;;;;;;;1.83;75.73;98194.66;7401107;19;19911;-83
2023/01/20 09:02:23;;;;;;;;;;;;;;;1.68;75.06;98196.53;7385374;19;19925;-83
2023/01/20 09:04:50;;;;;;;;;;;;;;;1.54;76.01;98201.84;7383167;19;19942;-83
2023/01/20 09:07:18;;;;;;;;;;;;;;;1.65;75.86;98215.00;7385997;19;19936;-83
2023/01/20 09:09:45;;;;;;;;;;;;;;;1.82;75.58;98213.00;7387834;19;19932;-83
2023/01/20 09:12:12;;;;;;;;;;;;;;;1.97;75.27;98219.78;7385229;19;19915;-85
2023/01/20 09:14:38;;;;;;;;;;;;;;;2.03;75.00;98213.31;7377388;19;20481;-85
2023/01/20 09:17:05;;;;;;;;;;;;;;;2.14;74.84;98213.41;7388036;19;19987;-86
2023/01/20 09:19:31;;;;;;;;;;;;;;;2.10;74.21;98225.00;7384048;19;20006;-85
2023/01/20 09:21:58;;;;;;;;;;;;;;;2.03;74.22;98218.53;7385674;19;19922;-85
2023/01/20 09:24:25;;;;;;;;;;;;;;;1.74;73.98;98222.22;7380919;19;19926;-86
2023/01/20 09:26:52;;;;;;;;;;;;;;;1.70;74.23;98222.50;7383653;19;19906;-85
2023/01/20 09:29:19;;;;;;;;;;;;;;;1.61;74.30;98226.56;7379976;19;19915;-85
2023/01/20 09:31:49;;;;;;;;;;;;;;;1.70;74.36;98223.34;7383895;19;19922;-85
2023/01/20 09:34:20;;;;;;;;;;;;;;;1.30;75.21;98233.00;7388249;19;20416;-85
2023/01/20 09:36:53;;;;;;;;;;;;;;;1.59;74.65;98230.22;7385894;19;20025;-85
2023/01/20 09:45:23;;;;;;;;;;;;;;;2.06;73.81;98245.25;7386398;19;19946;-86
2023/01/20 09:47:50;;;;;;;;;;;;;;;2.15;74.25;98241.16;7384072;19;20288;-85
2023/01/20 09:53:31;;;;;;;;;;;;;;;2.40;73.55;98240.31;7389545;19;19927;-86
2023/01/20 09:56:08;;;;;;;;;;;;;;;2.27;73.93;98244.72;7389142;19;20339;-86
2023/01/20 09:58:41;;;;;;;;;;;;;;;2.44;72.79;98244.34;7386456;19;19919;-85
2023/01/20 10:01:07;;;;;;;;;;;;;;;2.42;73.43;98248.84;7391451;19;19919;-86
2023/01/20 10:03:46;;;;;;;;;;;;;;;2.44;72.55;98243.53;7391814;19;19939;-84
2023/01/20 10:06:15;;;;;;;;;;;;;;;2.41;72.85;98248.00;7390416;19;19915;-83
2023/01/20 10:08:57;;;;;;;;;;;;;;;2.65;72.78;98242.00;7388550;19;20380;-84
2023/01/20 10:11:37;;;;;;;;;;;;;;;2.77;72.21;98248.97;7389055;19;19915;-84
2023/01/20 10:14:08;;;;;;;;;;;;;;;2.73;72.41;98242.28;7386988;19;19937;-84
2023/01/20 10:16:37;;;;;;;;;;;;;;;2.92;72.01;98243.56;7387231;19;20367;-83
2023/01/20 10:19:04;;;;;;;;;;;;;;;2.77;70.91;98241.13;7384810;19;19981;-84
2023/01/20 10:21:33;;;;;;;;;;;;;;;2.84;71.73;98246.75;7383979;19;19925;-84
2023/01/20 10:24:02;;;;;;;;;;;;;;;2.64;72.19;98251.63;7379162;19;20280;-83
2023/01/20 10:26:29;;;;;;;;;;;;;;;2.54;72.37;98245.38;7383120;19;19911;-83
2023/01/20 10:28:59;;;;;;;;;;;;;;;2.38;72.28;98250.84;7383361;19;19914;-84
2023/01/20 10:31:31;;;;;;;;;;;;;;;2.46;72.56;98252.91;7385092;19;19988;-83
2023/01/20 10:34:05;;;;;;;;;;;;;;;2.51;73.30;98250.81;7385806;19;19933;-83
2023/01/20 10:36:33;;;;;;;;;;;;;;;2.69;72.81;98250.47;7384648;19;19978;-84
2023/01/20 10:39:02;;;;;;;;;;;;;;;2.52;72.60;98249.88;7379623;19;19919;-83
2023/01/20 10:41:39;;;;;;;;;;;;;;;2.57;73.43;98250.38;7382158;19;19970;-84
2023/01/20 10:44:10;;;;;;;;;;;;;;;2.53;72.70;98246.34;7383384;19;19923;-84
2023/01/20 10:46:40;;;;;;;;;;;;;;;2.76;73.17;98246.47;7383222;19;19998;-83
2023/01/20 10:49:25;;;;;;;;;;;;;;;2.92;72.19;98249.63;7381639;19;20390;-83
2023/01/20 10:52:07;;;;;;;;;;;;;;;3.08;71.72;98242.38;7382557;19;20257;-83
2023/01/20 10:54:57;;;;;;;;;;;;;;;2.92;71.34;98252.25;7376671;19;19921;-84
2023/01/20 10:57:23;;;;;;;;;;;;;;;2.89;70.68;98255.09;7378106;19;20269;-84
2023/01/20 10:59:54;;;;;;;;;;;;;;;2.65;71.68;98255.06;7374347;19;19929;-83
2023/01/20 11:02:24;;;;;;;;;;;;;;;2.52;71.79;98254.25;7377827;19;19919;-83
2023/01/20 11:04:53;;;;;;;;;;;;;;;2.42;71.99;98254.06;7380576;19;19926;-82
2023/01/20 11:07:19;;;;;;;;;;;;;;;2.36;72.42;98257.13;7381178;19;19933;-83
2023/01/20 11:09:46;;;;;;;;;;;;;;;2.41;73.11;98257.63;7382093;19;19925;-83
2023/01/20 11:12:14;;;;;;;;;;;;;;;2.49;71.89;98259.72;7380576;19;19974;-83
2023/01/20 11:14:41;;;;;;;;;;;;;;;2.35;71.83;98258.91;7376923;19;19915;-83
2023/01/20 11:17:12;;;;;;;;;;;;;;;2.28;72.61;98262.88;7377750;19;20368;-83
2023/01/20 11:19:46;;;;;;;;;;;;;;;2.41;72.75;98262.84;7374454;19;21205;-82
2023/01/20 11:22:13;;;;;;;;;;;;;;;2.40;71.83;98256.81;7385606;19;19931;-83
2023/01/20 11:24:41;;;;;;;;;;;;;;;2.15;72.39;98264.66;7377055;19;19922;-84
2023/01/20 11:27:31;;;;;;;;;;;;;;;2.24;72.94;98263.19;7378887;19;19939;-81
2023/01/20 11:29:59;;;;;;;;;;;;;;;2.28;72.93;98265.47;7372850;19;19929;-82
2023/01/20 11:32:27;;;;;;;;;;;;;;;2.54;72.85;98263.66;7372441;19;19926;-82
2023/01/20 11:34:54;;;;;;;;;;;;;;;2.71;72.22;98266.84;7372618;19;20608;-82
2023/01/20 11:37:24;;;;;;;;;;;;;;;2.96;71.51;98264.16;7371965;19;19939;-82
2023/01/20 11:39:59;;;;;;;;;;;;;;;3.00;70.63;98268.22;7372162;19;19922;-82
2023/01/20 11:42:30;;;;;;;;;;;;;;;3.13;69.64;98264.72;7366313;19;20396;-82
2023/01/20 11:44:58;;;;;;;;;;;;;;;3.19;69.32;98270.34;7367266;19;19982;-83
2023/01/20 11:47:44;;;;;;;;;;;;;;;3.27;72.63;98257.53;7368813;19;19946;-82
2023/01/20 11:50:17;;;;;;;;;;;;;;;3.39;70.13;98257.56;7366398;19;19981;-82
2023/01/20 11:52:45;;;;;;;;;;;;;;;3.20;69.48;98273.78;7369695;19;20285;-82
2023/01/20 11:55:12;;;;;;;;;;;;;;;3.23;70.26;98276.16;7370080;19;22314;-83
2023/01/20 11:57:43;;;;;;;;;;;;;;;2.90;70.49;98272.44;7372484;19;20421;-82
2023/01/20 12:00:15;;;;;;;;;;;;;;;2.84;70.82;98271.13;7372689;19;20341;-82
2023/01/20 12:02:44;;;;;;;;;;;;;;;2.89;70.76;98262.94;7370939;19;19914;-82
2023/01/20 12:05:15;;;;;;;;;;;;;;;3.15;70.75;98266.25;7373462;19;19936;-82
2023/01/20 12:07:46;;;;;;;;;;;;;;;3.06;69.71;98270.41;7362732;19;19915;-83
2023/01/20 12:10:16;;;;;;;;;;;;;;;3.30;70.12;98273.00;7379325;19;19911;-83
2023/01/20 12:12:48;;;;;;;;;;;;;;;3.28;69.19;98263.59;7373668;19;19923;-84
2023/01/20 12:15:26;;;;;;;;;;;;;;;3.51;68.82;98269.75;7378374;19;19926;-84
2023/01/20 12:18:05;;;;;;;;;;;;;;;3.77;67.38;98266.97;7378114;19;20299;-85
2023/01/20 12:20:36;;;;;;;;;;;;;;;3.76;65.70;98275.75;7366597;19;19918;-85
2023/01/20 12:23:20;;;;;;;;;;;;;;;3.62;64.84;98275.00;7373312;19;19911;-84
2023/01/20 12:25:57;;;;;;;;;;;;;;;3.35;65.34;98283.13;7376546;19;19922;-85
2023/01/20 12:28:32;;;;;;;;;;;;;;;2.83;67.12;98281.66;7380977;19;19989;-88
2023/01/20 12:31:00;;;;;;;;;;;;;;;2.95;65.77;98285.16;7382261;19;20282;-86
2023/01/20 12:33:28;;;;;;;;;;;;;;;2.91;66.66;98281.94;7376541;19;19923;-87
2023/01/20 12:36:15;;;;;;;;;;;;;;;2.83;66.26;98282.50;7374408;19;19917;-86
2023/01/20 12:38:54;;;;;;;;;;;;;;;3.25;66.85;98284.75;7364970;19;19918;-87
2023/01/20 12:41:41;;;;;;;;;;;;;;;3.35;66.83;98290.13;7372327;19;19915;-87
2023/01/20 12:44:26;;;;;;;;;;;;;;;3.16;66.72;98293.25;7377292;19;19922;-87
2023/01/20 12:46:55;;;;;;;;;;;;;;;3.32;65.35;98293.81;7375636;19;19919;-86
2023/01/20 12:49:31;;;;;;;;;;;;;;;3.26;66.69;98294.25;7374081;19;19954;-85
2023/01/20 12:52:07;;;;;;;;;;;;;;;2.62;66.42;98295.28;7376339;19;19957;-85
2023/01/20 12:54:53;;;;;;;;;;;;;;;2.92;67.43;98296.66;7375734;19;19918;-85
2023/01/20 12:57:21;;;;;;;;;;;;;;;2.72;68.04;98300.72;7375620;19;19922;-86
2023/01/20 13:00:03;;;;;;;;;;;;;;;3.02;67.52;98296.84;7370339;19;19918;-87
2023/01/20 13:02:42;;;;;;;;;;;;;;;3.11;68.04;98297.97;7375620;19;19936;-86
2023/01/20 13:05:21;;;;;;;;;;;;;;;2.93;67.87;98305.38;7382382;19;19926;-86
2023/01/20 13:08:07;;;;;;;;;;;;;;;3.14;67.53;98295.16;7379614;19;19915;-84
2023/01/20 13:10:53;;;;;;;;;;;;;;;3.03;66.76;98301.97;7382081;19;20451;-84
2023/01/20 13:13:51;;;;;;;;;;;;;;;3.13;65.30;98298.69;7373073;19;19926;-84
2023/01/20 13:16:41;;;;;;;;;;;;;;;3.24;65.30;98296.16;7375833;19;19919;-85
2023/01/20 13:19:16;;;;;;;;;;;;;;;3.12;66.09;98297.03;7376533;19;19940;-84
2023/01/20 13:21:42;;;;;;;;;;;;;;;3.01;66.25;98298.63;7368189;19;19918;-84